Time;durP1;ratioP1;P1;durP2;ratioP2;P2;SDS_P1;SDS_P2;PMS_P1;PMS_P2;Temp;Humidity;BMP_temperature;BMP_pressure;BME280_temperature;BME280_humidity;BME280_pressure;Samples;Min_cycle;Max_cycle;Signal;HPM_P1;HPM_P2
2022/02/07 00:03:58;;;;;;;3.83;0.40;;;;;;;;;;4906775;29;20056;-75
2022/02/07 00:06:29;;;;;;;2.65;0.80;;;;;;;;;;4891939;29;20056;-75
2022/02/07 00:09:00;;;;;;;1.67;0.55;;;;;;;;;;4925072;29;20071;-77
2022/02/07 00:11:31;;;;;;;3.50;0.60;;;;;;;;;;4843917;29;20041;-75
2022/02/07 00:14:02;;;;;;;1.35;0.40;;;;;;;;;;4876355;29;20422;-76
2022/02/07 00:16:32;;;;;;;2.50;0.55;;;;;;;;;;4876683;29;20053;-76
2022/02/07 00:19:05;;;;;;;3.75;0.47;;;;;;;;;;4830491;29;20072;-76
2022/02/07 00:21:35;;;;;;;3.13;0.52;;;;;;;;;;4846052;29;20561;-76
2022/02/07 00:24:06;;;;;;;2.75;0.50;;;;;;;;;;4879018;29;20052;-75
2022/02/07 00:26:37;;;;;;;4.60;0.70;;;;;;;;;;4895186;29;20497;-74
2022/02/07 00:29:08;;;;;;;0.70;0.40;;;;;;;;;;4879145;29;20158;-75
2022/02/07 00:31:38;;;;;;;2.78;0.47;;;;;;;;;;4894391;29;20049;-76
2022/02/07 00:34:09;;;;;;;4.93;0.70;;;;;;;;;;4861478;29;20197;-75
2022/02/07 00:36:39;;;;;;;1.63;0.60;;;;;;;;;;4894949;29;20056;-76
2022/02/07 00:39:18;;;;;;;4.75;0.60;;;;;;;;;;4864449;29;20068;-75
2022/02/07 00:41:58;;;;;;;1.88;0.50;;;;;;;;;;4908737;29;20067;-74
2022/02/07 00:44:29;;;;;;;1.75;0.60;;;;;;;;;;4913603;29;20080;-75
2022/02/07 00:47:06;;;;;;;1.80;0.75;;;;;;;;;;4913959;29;20060;-75
2022/02/07 00:49:37;;;;;;;2.55;0.52;;;;;;;;;;4904409;29;20415;-75
2022/02/07 00:52:07;;;;;;;2.35;0.50;;;;;;;;;;4952036;29;20058;-75
2022/02/07 00:54:38;;;;;;;2.25;0.93;;;;;;;;;;4951650;29;20074;-75
2022/02/07 00:57:09;;;;;;;2.28;0.60;;;;;;;;;;4945594;28;20058;-73
2022/02/07 00:59:40;;;;;;;2.78;0.60;;;;;;;;;;4970855;28;20114;-74
2022/02/07 01:02:11;;;;;;;2.95;0.85;;;;;;;;;;4923554;28;20046;-74
2022/02/07 01:04:41;;;;;;;1.80;0.60;;;;;;;;;;4932284;29;20059;-74
2022/02/07 01:07:12;;;;;;;5.03;0.75;;;;;;;;;;4928654;29;20067;-74
2022/02/07 01:09:50;;;;;;;7.38;0.80;;;;;;;;;;4897264;29;20048;-74
2022/02/07 01:57:12;;;;;;;2.90;0.80;;;;;;;;;;4850400;29;20084;-75
2022/02/07 01:59:45;;;;;;;8.15;0.80;;;;;;;;;;4856219;29;20502;-74
2022/02/07 02:02:17;;;;;;;5.13;1.30;;;;;;;;;;4806016;29;20050;-75
2022/02/07 02:04:48;;;;;;;4.70;1.20;;;;;;;;;;4822481;29;20058;-75
2022/02/07 02:07:30;;;;;;;6.43;0.90;;;;;;;;;;4842536;29;20060;-75
2022/02/07 02:10:04;;;;;;;2.58;1.38;;;;;;;;;;4837401;29;20057;-74
2022/02/07 02:12:44;;;;;;;6.25;0.73;;;;;;;;;;4856183;29;20057;-75
2022/02/07 02:45:22;;;;;;;7.03;1.20;;;;;;;;;;4761587;30;20055;-75
2022/02/07 02:47:04;;;;;;;7.15;1.42;;;;;;;;;;4762636;30;20057;-76
2022/02/07 02:49:45;;;;;;;5.80;1.25;;;;;;;;;;4786392;30;20059;-76
2022/02/07 02:52:17;;;;;;;3.70;1.75;;;;;;;;;;4803276;29;20055;-76
2022/02/07 02:54:48;;;;;;;6.00;1.13;;;;;;;;;;4822600;29;20491;-74
2022/02/07 02:57:18;;;;;;;4.00;1.30;;;;;;;;;;4822528;29;20058;-75
2022/02/07 02:59:49;;;;;;;4.45;1.40;;;;;;;;;;4791851;29;20063;-75
2022/02/07 03:02:20;;;;;;;7.45;1.20;;;;;;;;;;4789537;29;20062;-76
2022/02/07 03:04:50;;;;;;;7.03;1.38;;;;;;;;;;4791699;29;20059;-75
2022/02/07 03:07:24;;;;;;;6.63;1.00;;;;;;;;;;4804111;29;20066;-75
2022/02/07 03:09:57;;;;;;;6.45;1.33;;;;;;;;;;4851151;29;20458;-76
2022/02/07 03:12:30;;;;;;;7.88;1.13;;;;;;;;;;4840345;29;20061;-76
2022/02/07 03:16:36;;;;;;;4.18;1.20;;;;;;;;;;4859134;29;20053;-76
2022/02/07 03:17:51;;;;;;;2.42;1.05;;;;;;;;;;4813386;29;20054;-74
2022/02/07 03:20:22;;;;;;;8.95;1.20;;;;;;;;;;4859321;29;20065;-75
2022/02/07 03:22:52;;;;;;;6.25;1.60;;;;;;;;;;4859109;29;20068;-75
2022/02/07 03:25:23;;;;;;;5.50;1.63;;;;;;;;;;4873446;29;20537;-76
2022/02/07 03:27:55;;;;;;;2.95;1.45;;;;;;;;;;4877517;29;20064;-74
2022/02/07 03:30:36;;;;;;;8.07;1.60;;;;;;;;;;4924530;29;20060;-76
2022/02/07 03:33:06;;;;;;;10.07;1.90;;;;;;;;;;4937072;29;20515;-75
2022/02/07 03:35:38;;;;;;;7.97;1.92;;;;;;;;;;4918861;29;20052;-77
2022/02/07 03:38:09;;;;;;;4.28;1.85;;;;;;;;;;4914785;29;20203;-75
2022/02/07 03:40:41;;;;;;;5.25;1.75;;;;;;;;;;4915180;29;20064;-75
2022/02/07 03:43:12;;;;;;;4.10;1.80;;;;;;;;;;4858404;29;20061;-74
2022/02/07 03:45:43;;;;;;;5.55;2.03;;;;;;;;;;4858618;29;20506;-75
2022/02/07 03:48:17;;;;;;;9.23;1.50;;;;;;;;;;4858275;29;20064;-77
2022/02/07 03:50:47;;;;;;;7.40;1.98;;;;;;;;;;4844527;29;20081;-76
2022/02/07 03:53:19;;;;;;;4.28;1.80;;;;;;;;;;4858293;29;20053;-75
2022/02/07 03:55:58;;;;;;;7.22;2.00;;;;;;;;;;4877055;29;20064;-76
2022/02/07 03:58:30;;;;;;;6.45;1.83;;;;;;;;;;4831980;29;20064;-76
2022/02/07 04:01:01;;;;;;;9.85;2.13;;;;;;;;;;4895352;29;20096;-75
2022/02/07 04:03:42;;;;;;;7.78;1.65;;;;;;;;;;4858139;29;20053;-75
2022/02/07 04:06:16;;;;;;;5.90;2.25;;;;;;;;;;4857936;29;20049;-76
2022/02/07 04:09:07;;;;;;;8.80;1.60;;;;;;;;;;4834614;29;20053;-76
2022/02/07 04:11:55;;;;;;;7.07;1.70;;;;;;;;;;4824413;29;20058;-77
2022/02/07 04:14:27;;;;;;;11.65;1.83;;;;;;;;;;4839073;29;20058;-75
2022/02/07 04:17:17;;;;;;;5.57;1.63;;;;;;;;;;4857980;29;20061;-76
2022/02/07 04:19:56;;;;;;;6.57;1.40;;;;;;;;;;4858395;29;20518;-76
2022/02/07 04:22:31;;;;;;;6.40;1.20;;;;;;;;;;4924701;29;20123;-75
2022/02/07 04:25:24;;;;;;;2.97;0.90;;;;;;;;;;4836588;29;20210;-73
2022/02/07 04:28:02;;;;;;;1.90;0.90;;;;;;;;;;4775009;29;20059;-75
2022/02/07 04:30:32;;;;;;;2.70;1.17;;;;;;;;;;4815129;29;20059;-75
2022/02/07 04:33:03;;;;;;;1.58;0.90;;;;;;;;;;4811090;29;20066;-76
2022/02/07 04:35:34;;;;;;;8.32;1.20;;;;;;;;;;4805548;29;20050;-76
2022/02/07 04:38:08;;;;;;;2.70;0.93;;;;;;;;;;4804848;29;20054;-76
2022/02/07 04:40:41;;;;;;;3.35;0.80;;;;;;;;;;4826393;29;20054;-76
2022/02/07 04:43:14;;;;;;;2.40;1.00;;;;;;;;;;4838735;29;20065;-76
2022/02/07 04:46:04;;;;;;;7.22;1.02;;;;;;;;;;4823732;29;20066;-75
2022/02/07 04:49:08;;;;;;;5.18;0.93;;;;;;;;;;4801609;29;20062;-76
2022/02/07 04:57:08;;;;;;;4.90;0.90;;;;;;;;;;4802414;29;20051;-76
2022/02/07 05:02:28;;;;;;;3.10;0.90;;;;;;;;;;4850111;29;20074;-76
2022/02/07 05:13:42;;;;;;;4.68;0.77;;;;;;;;;;4847127;29;20399;-74
2022/02/07 05:16:24;;;;;;;3.58;0.82;;;;;;;;;;4887918;29;20194;-74
2022/02/07 05:19:13;;;;;;;3.90;0.90;;;;;;;;;;4862593;29;20049;-74
2022/02/07 05:21:48;;;;;;;4.30;0.90;;;;;;;;;;4834625;29;20050;-74
2022/02/07 05:24:44;;;;;;;4.28;0.85;;;;;;;;;;4838916;29;20116;-73
2022/02/07 05:27:34;;;;;;;4.13;1.17;;;;;;;;;;4893642;29;20053;-75
2022/02/07 05:30:27;;;;;;;3.88;0.90;;;;;;;;;;4831938;29;20061;-74
2022/02/07 05:33:30;;;;;;;9.55;0.80;;;;;;;;;;4790369;29;20536;-74
2022/02/07 05:36:43;;;;;;;2.38;0.75;;;;;;;;;;4745355;30;20048;-74
2022/02/07 05:39:54;;;;;;;3.15;0.80;;;;;;;;;;4723806;30;20450;-75
2022/02/07 05:43:09;;;;;;;4.82;0.73;;;;;;;;;;4738650;30;20564;-75
2022/02/07 05:46:05;;;;;;;2.28;0.70;;;;;;;;;;4699625;30;20530;-73
2022/02/07 05:49:07;;;;;;;5.05;1.17;;;;;;;;;;4711359;30;20406;-74
2022/02/07 05:51:57;;;;;;;5.30;0.75;;;;;;;;;;4727995;30;20057;-74
2022/02/07 05:55:03;;;;;;;1.40;1.00;;;;;;;;;;4765488;30;20059;-74
2022/02/07 05:58:09;;;;;;;4.07;0.70;;;;;;;;;;4784957;29;20770;-74
2022/02/07 06:01:10;;;;;;;2.03;0.65;;;;;;;;;;4813351;29;20058;-74
2022/02/07 06:03:39;;;;;;;4.10;0.80;;;;;;;;;;4816586;29;20527;-73
2022/02/07 06:06:10;;;;;;;6.45;0.82;;;;;;;;;;4816139;29;20092;-74
2022/02/07 06:08:38;;;;;;;4.25;0.80;;;;;;;;;;4786014;29;20059;-74
2022/02/07 06:11:12;;;;;;;7.00;1.00;;;;;;;;;;4768599;30;20572;-72
2022/02/07 06:13:45;;;;;;;1.35;0.60;;;;;;;;;;4793855;29;20175;-74
2022/02/07 06:16:18;;;;;;;2.45;0.95;;;;;;;;;;4801506;29;20066;-74
2022/02/07 06:18:55;;;;;;;5.43;0.80;;;;;;;;;;4801270;29;20603;-73
2022/02/07 06:21:32;;;;;;;3.60;0.80;;;;;;;;;;4765000;30;20059;-75
2022/02/07 06:24:04;;;;;;;1.73;0.90;;;;;;;;;;4765704;30;20536;-75
2022/02/07 06:26:34;;;;;;;1.70;0.90;;;;;;;;;;4747675;30;20052;-74
2022/02/07 06:29:09;;;;;;;3.20;0.80;;;;;;;;;;4738211;30;20065;-72
2022/02/07 06:31:44;;;;;;;2.50;0.80;;;;;;;;;;4747612;30;20181;-73
2022/02/07 06:34:15;;;;;;;3.05;0.70;;;;;;;;;;4747464;30;20060;-73
2022/02/07 06:36:45;;;;;;;1.83;0.63;;;;;;;;;;4761951;30;20063;-73
2022/02/07 06:39:18;;;;;;;2.45;1.02;;;;;;;;;;4747386;30;20052;-73
2022/02/07 06:41:51;;;;;;;3.92;1.23;;;;;;;;;;4735196;30;20064;-75
2022/02/07 06:44:29;;;;;;;2.28;0.88;;;;;;;;;;4744343;30;20052;-74
2022/02/07 06:47:01;;;;;;;3.30;0.90;;;;;;;;;;4757603;30;20055;-75
2022/02/07 06:49:33;;;;;;;5.93;0.70;;;;;;;;;;4763154;30;20043;-74
2022/02/07 06:52:05;;;;;;;2.83;1.02;;;;;;;;;;4764172;29;20520;-73
2022/02/07 06:54:36;;;;;;;4.30;0.70;;;;;;;;;;4782814;29;20058;-74
2022/02/07 06:57:07;;;;;;;2.03;0.80;;;;;;;;;;4761249;30;20461;-74
2022/02/07 06:59:41;;;;;;;3.90;0.70;;;;;;;;;;4772577;29;20067;-75
2022/02/07 07:02:14;;;;;;;3.42;0.60;;;;;;;;;;4819300;29;20061;-75
2022/02/07 07:04:44;;;;;;;2.47;0.77;;;;;;;;;;4844768;29;20430;-74
2022/02/07 07:07:15;;;;;;;1.63;0.80;;;;;;;;;;4855722;29;20054;-74
2022/02/07 07:09:47;;;;;;;5.70;1.00;;;;;;;;;;4852418;29;20061;-74
2022/02/07 07:12:19;;;;;;;2.63;1.00;;;;;;;;;;4858116;29;20094;-74
2022/02/07 07:15:06;;;;;;;3.25;1.15;;;;;;;;;;4859131;29;20072;-74
2022/02/07 07:17:37;;;;;;;3.97;1.10;;;;;;;;;;4840616;29;20057;-74
2022/02/07 07:20:11;;;;;;;3.47;0.90;;;;;;;;;;4774897;29;20047;-73
2022/02/07 07:22:44;;;;;;;3.28;0.70;;;;;;;;;;4756647;29;20635;-74
2022/02/07 07:25:17;;;;;;;2.42;0.90;;;;;;;;;;4799301;29;20416;-73
2022/02/07 07:28:00;;;;;;;9.73;1.10;;;;;;;;;;4803895;29;20058;-74
2022/02/07 07:30:51;;;;;;;2.30;0.90;;;;;;;;;;4803693;29;20059;-73
2022/02/07 07:33:26;;;;;;;7.00;1.02;;;;;;;;;;4806553;29;20066;-73
2022/02/07 07:35:59;;;;;;;7.45;1.00;;;;;;;;;;4858579;29;20065;-73
2022/02/07 07:38:31;;;;;;;3.42;0.80;;;;;;;;;;4840128;29;20062;-74
2022/02/07 07:41:02;;;;;;;1.88;0.77;;;;;;;;;;4821662;29;20059;-74
2022/02/07 07:43:49;;;;;;;4.80;1.13;;;;;;;;;;4808557;29;21152;-74
2022/02/07 07:46:40;;;;;;;2.40;0.68;;;;;;;;;;4821433;29;20066;-73
2022/02/07 07:49:41;;;;;;;2.10;0.80;;;;;;;;;;4780135;29;20059;-74
2022/02/07 07:53:11;;;;;;;6.63;0.90;;;;;;;;;;4814275;29;20554;-74
2022/02/07 08:03:51;;;;;;;6.28;1.20;;;;;;;;;;4803646;29;20063;-74
2022/02/07 08:06:30;;;;;;;9.32;1.20;;;;;;;;;;4803620;29;20537;-74
2022/02/07 08:11:40;;;;;;;4.30;1.00;;;;;;;;;;4816949;29;20047;-74
2022/02/07 08:14:11;;;;;;;3.65;0.80;;;;;;;;;;4828432;29;20054;-75
2022/02/07 08:16:41;;;;;;;3.72;1.00;;;;;;;;;;4834519;29;20066;-74
2022/02/07 08:19:12;;;;;;;9.60;0.70;;;;;;;;;;4839573;29;20072;-75
2022/02/07 08:21:42;;;;;;;3.05;0.95;;;;;;;;;;4839949;29;20495;-73
2022/02/07 08:24:12;;;;;;;2.85;0.90;;;;;;;;;;4838842;29;20074;-75
2022/02/07 08:26:42;;;;;;;5.13;1.00;;;;;;;;;;4822260;29;20566;-74
2022/02/07 08:29:14;;;;;;;3.30;1.08;;;;;;;;;;4829174;29;20394;-74
2022/02/07 08:31:44;;;;;;;3.92;0.93;;;;;;;;;;4895613;29;20057;-73
2022/02/07 08:34:15;;;;;;;6.32;0.73;;;;;;;;;;4876233;29;20053;-74
2022/02/07 08:36:45;;;;;;;1.63;0.85;;;;;;;;;;4870961;29;20064;-71
2022/02/07 08:39:20;;;;;;;1.88;0.82;;;;;;;;;;4841951;29;20050;-74
2022/02/07 08:41:51;;;;;;;3.13;0.80;;;;;;;;;;4857858;29;20057;-74
2022/02/07 08:44:20;;;;;;;2.17;1.00;;;;;;;;;;4857684;29;20065;-74
2022/02/07 08:46:51;;;;;;;1.60;0.70;;;;;;;;;;4857886;29;20057;-73
2022/02/07 08:49:21;;;;;;;5.97;1.10;;;;;;;;;;4877637;29;20081;-75
2022/02/07 08:51:52;;;;;;;8.32;1.23;;;;;;;;;;4894758;29;20432;-75
2022/02/07 08:54:26;;;;;;;4.18;0.90;;;;;;;;;;4864401;29;20056;-75
2022/02/07 08:57:12;;;;;;;5.47;0.63;;;;;;;;;;4894909;29;20501;-73
2022/02/07 08:59:59;;;;;;;1.80;1.20;;;;;;;;;;4894742;29;20065;-73
2022/02/07 09:07:47;;;;;;;9.98;1.33;;;;;;;;;;4875894;29;20057;-74
2022/02/07 09:10:17;;;;;;;7.05;1.13;;;;;;;;;;4857066;29;20049;-74
2022/02/07 09:12:48;;;;;;;2.85;0.82;;;;;;;;;;4857336;29;20418;-74
2022/02/07 09:18:24;;;;;;;6.13;1.10;;;;;;;;;;4875964;29;20053;-74
2022/02/07 09:20:57;;;;;;;6.60;0.98;;;;;;;;;;4871770;29;20049;-74
2022/02/07 09:23:28;;;;;;;2.78;1.25;;;;;;;;;;4875614;29;20053;-74
2022/02/07 09:25:59;;;;;;;6.43;0.98;;;;;;;;;;4875198;29;20528;-73
2022/02/07 09:28:30;;;;;;;3.50;1.05;;;;;;;;;;4844647;29;20069;-72
2022/02/07 09:31:00;;;;;;;3.40;1.23;;;;;;;;;;4838243;29;20062;-74
2022/02/07 09:33:31;;;;;;;12.52;1.67;;;;;;;;;;4807790;29;20523;-74
2022/02/07 09:36:02;;;;;;;3.35;1.00;;;;;;;;;;4838005;29;20046;-74
2022/02/07 09:38:33;;;;;;;2.55;1.27;;;;;;;;;;4838371;29;20082;-75
2022/02/07 09:41:08;;;;;;;5.18;0.93;;;;;;;;;;4838304;29;20060;-74
2022/02/07 09:43:45;;;;;;;2.35;1.23;;;;;;;;;;4838156;29;20061;-75
2022/02/07 09:46:35;;;;;;;1.75;1.00;;;;;;;;;;4873337;29;20060;-74
2022/02/07 09:49:06;;;;;;;;;;;;;;;;;;4842142;29;20050;-74
2022/02/07 09:51:36;;;;;;;6.38;1.50;;;;;;;;;;4847769;29;19955;-73
2022/02/07 09:54:08;;;;;;;4.22;1.33;;;;;;;;;;4893175;29;20548;-73
2022/02/07 09:56:39;;;;;;;7.72;1.20;;;;;;;;;;4893663;29;20080;-74
2022/02/07 09:59:09;;;;;;;8.63;1.83;;;;;;;;;;4878517;29;20065;-75
2022/02/07 10:01:46;;;;;;;4.50;1.73;;;;;;;;;;4893561;29;20053;-75
2022/02/07 10:04:28;;;;;;;6.93;1.73;;;;;;;;;;4893794;29;20057;-74
2022/02/07 10:10:12;;;;;;;3.78;1.30;;;;;;;;;;4874739;29;20061;-73
2022/02/07 10:13:11;;;;;;;3.42;1.27;;;;;;;;;;4879269;29;20092;-72
2022/02/07 10:15:55;;;;;;;3.33;1.10;;;;;;;;;;4888397;29;20060;-74
2022/02/07 10:38:24;;;;;;;8.98;1.95;;;;;;;;;;4915292;29;20557;-73
2022/02/07 10:46:20;;;;;;;5.70;1.50;;;;;;;;;;4947055;28;20058;-73
2022/02/07 10:48:54;;;;;;;7.97;1.45;;;;;;;;;;5015213;28;20401;-73
2022/02/07 10:51:28;;;;;;;2.10;1.10;;;;;;;;;;4949815;28;20064;-74
2022/02/07 10:54:16;;;;;;;2.70;1.40;;;;;;;;;;4997698;28;20466;-74
2022/02/07 10:56:49;;;;;;;6.70;1.75;;;;;;;;;;5015066;28;20045;-73
2022/02/07 10:59:21;;;;;;;3.20;1.40;;;;;;;;;;4975837;28;20055;-74
2022/02/07 11:04:38;;;;;;;4.50;1.30;;;;;;;;;;4976454;28;20742;-74
2022/02/07 11:07:10;;;;;;;4.47;1.65;;;;;;;;;;4992662;28;20054;-73
2022/02/07 11:10:20;;;;;;;4.57;1.63;;;;;;;;;;4953567;29;20047;-73
2022/02/07 11:15:17;;;;;;;5.65;1.48;;;;;;;;;;4922065;29;20055;-74
2022/02/07 11:18:05;;;;;;;6.47;1.70;;;;;;;;;;4943779;28;20060;-75
2022/02/07 11:20:54;;;;;;;7.30;2.10;;;;;;;;;;4930244;29;20063;-75
2022/02/07 11:23:33;;;;;;;7.85;1.98;;;;;;;;;;4945193;29;20059;-75
2022/02/07 11:26:33;;;;;;;3.97;1.70;;;;;;;;;;4940011;29;20052;-75
2022/02/07 11:29:03;;;;;;;5.68;1.33;;;;;;;;;;4918602;29;20060;-74
2022/02/07 11:31:42;;;;;;;5.28;1.02;;;;;;;;;;4915276;29;20052;-75
2022/02/07 11:34:13;;;;;;;2.28;0.90;;;;;;;;;;4915171;29;20420;-77
2022/02/07 11:36:44;;;;;;;4.50;0.90;;;;;;;;;;4873122;29;20052;-77
2022/02/07 11:39:20;;;;;;;3.95;1.30;;;;;;;;;;4884686;29;20056;-75
2022/02/07 11:42:05;;;;;;;3.17;1.08;;;;;;;;;;4915091;29;20048;-73
2022/02/07 11:44:37;;;;;;;7.68;4.32;;;;;;;;;;4880567;29;20093;-76
2022/02/07 11:47:14;;;;;;;3.28;1.58;;;;;;;;;;4912495;29;20056;-74
2022/02/07 11:49:50;;;;;;;5.80;3.13;;;;;;;;;;4934055;29;20063;-76
2022/02/07 11:52:35;;;;;;;3.10;0.93;;;;;;;;;;4934037;29;20052;-75
2022/02/07 11:55:12;;;;;;;2.55;1.10;;;;;;;;;;4917926;29;20052;-76
2022/02/07 11:58:05;;;;;;;3.33;1.08;;;;;;;;;;4872581;29;20540;-76
2022/02/07 12:00:44;;;;;;;4.75;2.17;;;;;;;;;;4933536;29;20055;-77
2022/02/07 12:03:17;;;;;;;5.97;1.50;;;;;;;;;;4932050;29;20067;-77
2022/02/07 12:05:52;;;;;;;1.70;0.70;;;;;;;;;;4902446;29;20878;-75
2022/02/07 12:08:27;;;;;;;1.70;0.80;;;;;;;;;;4926738;29;20059;-75
2022/02/07 12:11:03;;;;;;;5.10;1.30;;;;;;;;;;4924049;29;20054;-75
2022/02/07 12:13:39;;;;;;;4.00;0.73;;;;;;;;;;4903483;28;20062;-75
2022/02/07 12:16:23;;;;;;;3.47;0.80;;;;;;;;;;4951470;28;20210;-75
2022/02/07 12:19:10;;;;;;;2.90;1.27;;;;;;;;;;4950179;28;20050;-74
2022/02/07 12:21:42;;;;;;;1.23;0.60;;;;;;;;;;5001928;28;20053;-76
2022/02/07 12:24:14;;;;;;;3.17;1.63;;;;;;;;;;5032902;28;20045;-74
2022/02/07 12:26:46;;;;;;;0.95;0.70;;;;;;;;;;4983029;28;20080;-64
2022/02/07 12:29:47;;;;;;;1.33;0.50;;;;;;;;;;5032342;28;20413;-64
2022/02/07 12:32:15;;;;;;;1.85;0.73;;;;;;;;;;5009838;28;20062;-64
2022/02/07 12:34:48;;;;;;;2.85;1.50;;;;;;;;;;4978192;28;20061;-64
2022/02/07 12:37:19;;;;;;;1.10;0.60;;;;;;;;;;5010679;28;20104;-65
2022/02/07 12:39:50;;;;;;;4.13;0.60;;;;;;;;;;4958296;28;20168;-65
2022/02/07 12:42:23;;;;;;;3.00;0.95;;;;;;;;;;4990854;28;20062;-65
2022/02/07 12:44:58;;;;;;;1.48;0.60;;;;;;;;;;4970733;28;20047;-64
2022/02/07 12:47:35;;;;;;;3.25;1.50;;;;;;;;;;4951673;28;20047;-66
2022/02/07 12:50:07;;;;;;;3.35;1.23;;;;;;;;;;4932337;29;20160;-66
2022/02/07 12:52:39;;;;;;;2.15;0.75;;;;;;;;;;4932730;29;20064;-65
2022/02/07 12:55:14;;;;;;;1.58;0.70;;;;;;;;;;4932780;29;20063;-63
2022/02/07 12:57:46;;;;;;;2.20;0.88;;;;;;;;;;4917720;29;20480;-64
2022/02/07 13:00:22;;;;;;;2.08;0.50;;;;;;;;;;4932538;29;20067;-65
2022/02/07 13:02:53;;;;;;;1.85;0.43;;;;;;;;;;4937839;29;20063;-77
2022/02/07 13:05:29;;;;;;;5.82;0.80;;;;;;;;;;4912321;29;20061;-64
2022/02/07 13:08:08;;;;;;;1.92;0.60;;;;;;;;;;4913332;29;20063;-65
2022/02/07 13:10:39;;;;;;;1.35;0.52;;;;;;;;;;4913005;29;20052;-64
2022/02/07 13:13:48;;;;;;;2.13;0.50;;;;;;;;;;4913306;29;20071;-63
2022/02/07 13:16:08;;;;;;;1.13;0.60;;;;;;;;;;4912032;29;20071;-71
2022/02/07 13:18:39;;;;;;;2.08;0.60;;;;;;;;;;4900142;29;20060;-73
2022/02/07 13:21:15;;;;;;;2.15;0.95;;;;;;;;;;4932203;29;20056;-74
2022/02/07 13:23:47;;;;;;;1.77;0.50;;;;;;;;;;4951145;29;20051;-72
2022/02/07 13:26:18;;;;;;;2.00;0.70;;;;;;;;;;4857237;29;20048;-73
2022/02/07 13:28:48;;;;;;;1.65;0.63;;;;;;;;;;4918363;29;20167;-72
2022/02/07 13:31:19;;;;;;;2.33;0.77;;;;;;;;;;4937747;29;20063;-74
2022/02/07 13:33:55;;;;;;;2.15;0.93;;;;;;;;;;4931408;29;20063;-73
2022/02/07 13:36:37;;;;;;;1.90;0.60;;;;;;;;;;4916884;29;20550;-75
2022/02/07 13:39:08;;;;;;;1.23;0.50;;;;;;;;;;4893566;29;20536;-72
2022/02/07 13:41:39;;;;;;;1.17;0.50;;;;;;;;;;4889922;29;20064;-74
2022/02/07 13:44:10;;;;;;;1.85;0.60;;;;;;;;;;4928467;28;20058;-73
2022/02/07 13:46:41;;;;;;;1.00;0.40;;;;;;;;;;4941262;28;20549;-72
2022/02/07 13:49:15;;;;;;;4.18;0.50;;;;;;;;;;4989572;28;20069;-73
2022/02/07 13:51:47;;;;;;;3.15;0.52;;;;;;;;;;4969799;28;20057;-72
2022/02/07 13:54:31;;;;;;;1.52;0.43;;;;;;;;;;4969870;28;20063;-71
2022/02/07 13:57:01;;;;;;;1.50;0.32;;;;;;;;;;4969880;28;20061;-71
2022/02/07 13:59:37;;;;;;;2.28;0.30;;;;;;;;;;4969936;28;20050;-71
2022/02/07 14:02:30;;;;;;;0.85;0.30;;;;;;;;;;4969931;28;20065;-73
2022/02/07 14:05:01;;;;;;;1.05;0.30;;;;;;;;;;4970021;28;20141;-71
2022/02/07 14:07:54;;;;;;;1.48;0.30;;;;;;;;;;4969969;28;20474;-73
2022/02/07 14:10:24;;;;;;;0.60;0.32;;;;;;;;;;4969674;28;20109;-78
2022/02/07 14:12:55;;;;;;;0.93;0.40;;;;;;;;;;4969902;28;20067;-72
2022/02/07 14:15:26;;;;;;;1.05;0.45;;;;;;;;;;4969958;28;20052;-73
2022/02/07 14:17:56;;;;;;;0.60;0.50;;;;;;;;;;5008004;28;20061;-72
2022/02/07 14:20:30;;;;;;;0.52;0.30;;;;;;;;;;5008779;28;20049;-73
2022/02/07 14:23:01;;;;;;;1.00;0.40;;;;;;;;;;4976155;28;20177;-72
2022/02/07 14:25:32;;;;;;;4.63;2.72;;;;;;;;;;5008857;28;20053;-72
2022/02/07 14:28:04;;;;;;;5.35;2.92;;;;;;;;;;4992811;28;20057;-72
2022/02/07 14:30:35;;;;;;;1.20;0.73;;;;;;;;;;5010948;28;20050;-74
2022/02/07 14:33:06;;;;;;;0.82;0.65;;;;;;;;;;5011259;28;20068;-73
2022/02/07 14:35:37;;;;;;;2.05;0.68;;;;;;;;;;5011060;28;20065;-75
2022/02/07 14:38:07;;;;;;;1.17;0.70;;;;;;;;;;5011360;28;20065;-74
2022/02/07 14:40:41;;;;;;;2.30;1.27;;;;;;;;;;5011185;28;20046;-74
2022/02/07 14:43:21;;;;;;;2.35;1.30;;;;;;;;;;5011103;28;20497;-72
2022/02/07 14:46:01;;;;;;;1.50;0.57;;;;;;;;;;4960590;28;20418;-72
2022/02/07 14:48:37;;;;;;;1.50;0.38;;;;;;;;;;5010870;28;20038;-74
2022/02/07 14:51:09;;;;;;;1.45;0.40;;;;;;;;;;4969583;28;20098;-72
2022/02/07 14:53:45;;;;;;;1.33;0.60;;;;;;;;;;4969393;28;20061;-74
2022/02/07 14:56:16;;;;;;;1.27;0.32;;;;;;;;;;4953222;28;20062;-74
2022/02/07 14:58:47;;;;;;;0.95;0.47;;;;;;;;;;4950115;29;20055;-73
2022/02/07 15:01:17;;;;;;;1.48;0.45;;;;;;;;;;4930550;29;20052;-75
2022/02/07 15:03:49;;;;;;;4.40;0.50;;;;;;;;;;4930956;29;20060;-75
2022/02/07 15:06:20;;;;;;;1.92;0.43;;;;;;;;;;4880229;29;20048;-76
2022/02/07 15:08:52;;;;;;;1.05;0.40;;;;;;;;;;4896231;29;20060;-77
2022/02/07 15:11:27;;;;;;;1.88;0.43;;;;;;;;;;4911908;29;20056;-75
2022/02/07 15:13:57;;;;;;;0.70;0.40;;;;;;;;;;4911957;29;20508;-78
2022/02/07 15:16:27;;;;;;;1.05;0.40;;;;;;;;;;4896462;29;20079;-78
2022/02/07 15:18:58;;;;;;;2.35;0.63;;;;;;;;;;4896218;29;20404;-74
2022/02/07 15:21:28;;;;;;;2.20;0.57;;;;;;;;;;4915394;29;20059;-77
2022/02/07 15:23:58;;;;;;;2.60;0.50;;;;;;;;;;4930711;29;20059;-77
2022/02/07 15:26:29;;;;;;;0.65;0.30;;;;;;;;;;4899197;29;20484;-73
2022/02/07 15:28:59;;;;;;;2.08;0.98;;;;;;;;;;4930873;29;20052;-76
2022/02/07 15:31:31;;;;;;;0.90;0.40;;;;;;;;;;4853369;29;20059;-79
2022/02/07 15:34:02;;;;;;;0.95;0.50;;;;;;;;;;4933859;29;20101;-78
2022/02/07 15:36:32;;;;;;;0.65;0.32;;;;;;;;;;4944628;29;20439;-77
2022/02/07 15:39:04;;;;;;;0.40;0.30;;;;;;;;;;4953534;29;20629;-76
2022/02/07 15:41:35;;;;;;;0.80;0.30;;;;;;;;;;4968829;28;20055;-78
2022/02/07 15:44:06;;;;;;;;;;;;;;;;;;4954233;28;20057;-75
2022/02/07 15:46:36;;;;;;;0.35;0.30;;;;;;;;;;5014138;28;19921;-75
2022/02/07 15:49:06;;;;;;;0.60;0.50;;;;;;;;;;5014150;28;20517;-74
2022/02/07 15:51:36;;;;;;;1.65;0.20;;;;;;;;;;4996405;28;20053;-77
2022/02/07 15:54:09;;;;;;;1.20;0.45;;;;;;;;;;4979256;28;20050;-75
2022/02/07 15:56:40;;;;;;;0.65;0.30;;;;;;;;;;5013639;28;20038;-74
2022/02/07 15:59:10;;;;;;;1.60;0.70;;;;;;;;;;5013717;28;20048;-72
2022/02/07 16:01:41;;;;;;;1.05;0.30;;;;;;;;;;4979227;28;20052;-74
2022/02/07 16:04:11;;;;;;;1.13;0.30;;;;;;;;;;5013610;28;20042;-74
2022/02/07 16:06:42;;;;;;;1.50;0.43;;;;;;;;;;5013579;28;20560;-76
2022/02/07 16:09:12;;;;;;;2.25;0.30;;;;;;;;;;4991342;28;20049;-75
2022/02/07 16:11:42;;;;;;;1.75;0.20;;;;;;;;;;4975072;28;20482;-68
2022/02/07 16:14:22;;;;;;;3.88;0.30;;;;;;;;;;4991651;28;20513;-73
2022/02/07 16:16:53;;;;;;;0.40;0.22;;;;;;;;;;4991434;28;20046;-74
2022/02/07 16:19:28;;;;;;;1.80;0.50;;;;;;;;;;4991457;28;20287;-73
2022/02/07 16:21:59;;;;;;;0.60;0.30;;;;;;;;;;4959273;28;20399;-73
2022/02/07 16:24:29;;;;;;;1.85;0.32;;;;;;;;;;4991395;28;20050;-73
2022/02/07 16:26:59;;;;;;;0.77;0.32;;;;;;;;;;4991127;28;20058;-71
2022/02/07 16:29:30;;;;;;;0.30;0.30;;;;;;;;;;4955146;28;20078;-73
2022/02/07 16:32:00;;;;;;;1.05;0.50;;;;;;;;;;4971335;28;20054;-72
2022/02/07 16:34:30;;;;;;;1.42;0.45;;;;;;;;;;4939565;28;20171;-75
2022/02/07 16:37:01;;;;;;;2.50;0.30;;;;;;;;;;4955384;28;20051;-69
2022/02/07 16:39:31;;;;;;;1.17;0.40;;;;;;;;;;4952104;29;20058;-71
2022/02/07 16:42:02;;;;;;;1.77;0.50;;;;;;;;;;4952281;29;20071;-74
2022/02/07 16:44:33;;;;;;;1.60;0.30;;;;;;;;;;4919038;29;20055;-74
2022/02/07 16:47:07;;;;;;;0.40;0.28;;;;;;;;;;4963358;28;20518;-70
2022/02/07 16:49:38;;;;;;;0.65;0.32;;;;;;;;;;4971510;28;20073;-69
2022/02/07 16:52:08;;;;;;;1.52;0.50;;;;;;;;;;4955264;28;20067;-70
2022/02/07 16:54:38;;;;;;;2.40;0.40;;;;;;;;;;4971218;28;20538;-73
2022/02/07 16:57:08;;;;;;;2.28;0.47;;;;;;;;;;4971117;28;20416;-75
2022/02/07 16:59:38;;;;;;;2.47;0.30;;;;;;;;;;4939160;28;20482;-70
2022/02/07 17:02:11;;;;;;;1.30;0.30;;;;;;;;;;4970997;28;20042;-73
2022/02/07 17:04:42;;;;;;;1.55;0.30;;;;;;;;;;4971057;28;20055;-71
2022/02/07 17:07:12;;;;;;;0.60;0.40;;;;;;;;;;4970981;28;20402;-75
2022/02/07 17:09:43;;;;;;;1.33;0.40;;;;;;;;;;4970904;28;20059;-72
2022/02/07 17:12:14;;;;;;;3.55;0.50;;;;;;;;;;4955010;28;20058;-66
2022/02/07 17:14:44;;;;;;;2.55;0.45;;;;;;;;;;4954752;28;20059;-72
2022/02/07 17:17:14;;;;;;;3.67;0.45;;;;;;;;;;4993092;28;20049;-73
2022/02/07 17:19:44;;;;;;;0.85;0.30;;;;;;;;;;4993659;28;20417;-73
2022/02/07 17:22:15;;;;;;;1.30;0.40;;;;;;;;;;4993802;28;20062;-73
2022/02/07 17:24:45;;;;;;;1.13;0.40;;;;;;;;;;4962256;28;20521;-73
2022/02/07 17:27:16;;;;;;;0.88;0.30;;;;;;;;;;4920269;29;20058;-73
2022/02/07 17:29:46;;;;;;;0.52;0.40;;;;;;;;;;4950909;29;20063;-72
2022/02/07 17:32:16;;;;;;;1.50;0.82;;;;;;;;;;4935308;29;20148;-73
2022/02/07 17:34:46;;;;;;;1.75;0.40;;;;;;;;;;4950941;29;20047;-68
2022/02/07 17:37:17;;;;;;;2.95;0.50;;;;;;;;;;4951120;29;20040;-70
2022/02/07 17:39:48;;;;;;;2.75;0.88;;;;;;;;;;4903395;29;20058;-71
2022/02/07 17:42:25;;;;;;;0.93;0.40;;;;;;;;;;4931761;29;20467;-69
2022/02/07 17:44:55;;;;;;;0.85;0.60;;;;;;;;;;4931519;29;20169;-68
2022/02/07 17:47:25;;;;;;;0.98;0.50;;;;;;;;;;4931777;29;20071;-68
2022/02/07 17:49:56;;;;;;;1.67;0.50;;;;;;;;;;4916134;29;20058;-67
2022/02/07 17:52:26;;;;;;;1.45;0.63;;;;;;;;;;4931873;29;20059;-68
2022/02/07 17:54:56;;;;;;;1.90;0.45;;;;;;;;;;4931309;29;20608;-65
2022/02/07 17:57:26;;;;;;;2.90;0.40;;;;;;;;;;4893603;29;20052;-63